Terminal Aerodrome Forecast
Issued by NWS

Home | Current Version | Previous Version | Text Only | Print | Product List | Glossary On
Versions: 1 2 3 4 5 6 7 8 9 10 11 12 13 14 15 16 17 18 19 20 21
875
FTPA31 PHFO 230705 AAA
TAFHNY
TAF AMD
PHNY 230705Z 2307/2406 05008KT P6SM FEW020 SCT035
     FM232200 04018G26KT P6SM BKN020
     FM240400 05012KT P6SM FEW020=

USA.gov is the U.S. government's official web portal to all federal, state and local government web resources and services.